Time;durP1;ratioP1;P1;durP2;ratioP2;P2;SDS_P1;SDS_P2;PMS_P1;PMS_P2;Temp;Humidity;BMP_temperature;BMP_pressure;BME280_temperature;BME280_humidity;BME280_pressure;Samples;Min_cycle;Max_cycle;Signal;HPM_P1;HPM_P2
2022/06/12 00:02:24;;;;;;;6.03;4.35;;;13.00;99.90;;;;;;5097655;28;20024;-53
2022/06/12 00:04:50;;;;;;;5.00;4.57;;;13.00;99.90;;;;;;5095908;28;20123;-54
2022/06/12 00:07:16;;;;;;;4.97;4.50;;;12.90;99.90;;;;;;5097805;28;20107;-55
2022/06/12 00:09:42;;;;;;;9.65;4.70;;;12.90;99.90;;;;;;5098070;28;20016;-51
2022/06/12 00:12:08;;;;;;;5.45;4.55;;;12.90;99.90;;;;;;5097869;28;20032;-51
2022/06/12 00:14:33;;;;;;;7.55;5.20;;;12.90;99.90;;;;;;5097724;28;20042;-51
2022/06/12 00:16:59;;;;;;;4.80;4.28;;;12.80;99.90;;;;;;5097615;28;20107;-54
2022/06/12 00:19:25;;;;;;;9.13;5.30;;;12.80;99.90;;;;;;5089772;28;20039;-53
2022/06/12 00:21:51;;;;;;;7.50;4.75;;;12.70;99.90;;;;;;5079404;28;20069;-52
2022/06/12 00:24:19;;;;;;;5.07;4.53;;;12.70;99.90;;;;;;5097285;28;20040;-54
2022/06/12 00:26:48;;;;;;;8.48;4.65;;;12.70;99.90;;;;;;5097512;28;20345;-51
2022/06/12 00:29:16;;;;;;;6.88;4.55;;;12.70;99.90;;;;;;5097187;28;20081;-51
2022/06/12 00:31:48;;;;;;;5.70;4.70;;;12.60;99.90;;;;;;5086438;28;20024;-53
2022/06/12 00:34:16;;;;;;;9.20;5.22;;;12.60;99.90;;;;;;5096980;28;20448;-51
2022/06/12 00:36:42;;;;;;;7.82;5.35;;;12.60;99.90;;;;;;5097695;28;20046;-54
2022/06/12 00:39:08;;;;;;;8.55;5.50;;;12.60;99.90;;;;;;5096261;28;20508;-53
2022/06/12 00:41:35;;;;;;;9.18;5.63;;;12.60;99.90;;;;;;5096658;28;20570;-51
2022/06/12 00:44:02;;;;;;;10.40;5.10;;;12.60;99.90;;;;;;5077331;28;20406;-54
2022/06/12 00:46:57;;;;;;;6.13;5.50;;;12.60;99.90;;;;;;5076727;28;20391;-51
2022/06/12 00:49:32;;;;;;;11.13;5.38;;;12.50;99.90;;;;;;5089010;28;20400;-51
2022/06/12 00:52:15;;;;;;;8.25;4.65;;;12.50;99.90;;;;;;5074624;28;20025;-55
2022/06/12 00:54:44;;;;;;;9.95;4.85;;;12.60;99.90;;;;;;5086673;28;20131;-53
2022/06/12 00:57:11;;;;;;;6.38;5.35;;;12.50;99.90;;;;;;5074093;28;20081;-52
2022/06/12 00:59:45;;;;;;;7.65;4.10;;;12.50;99.90;;;;;;5073598;28;20071;-53
2022/06/12 01:02:19;;;;;;;22.73;5.30;;;12.50;99.90;;;;;;5083544;28;20383;-53
2022/06/12 01:07:35;;;;;;;7.95;4.93;;;12.30;99.90;;;;;;5083659;28;20069;-52
2022/06/12 01:10:04;;;;;;;11.48;4.70;;;12.20;99.90;;;;;;5092449;28;20028;-52
2022/06/12 01:12:37;;;;;;;9.90;5.38;;;12.10;99.90;;;;;;5092788;28;20649;-51
2022/06/12 01:15:14;;;;;;;5.35;4.90;;;12.10;99.90;;;;;;5093038;28;20039;-51
2022/06/12 01:17:41;;;;;;;7.68;5.35;;;12.10;99.90;;;;;;5093256;28;20600;-53
2022/06/12 01:20:10;;;;;;;6.90;5.18;;;12.10;99.90;;;;;;5092154;28;20160;-54
2022/06/12 01:22:54;;;;;;;6.03;5.43;;;12.10;99.90;;;;;;5080149;28;20044;-55
2022/06/12 01:25:44;;;;;;;10.25;5.40;;;12.10;99.90;;;;;;5073403;28;20112;-51
2022/06/12 01:28:34;;;;;;;7.68;5.63;;;12.10;99.90;;;;;;5072867;28;20104;-51
2022/06/12 01:31:09;;;;;;;5.93;5.45;;;12.10;99.90;;;;;;5072896;28;20412;-53
2022/06/12 01:34:00;;;;;;;6.57;5.20;;;12.10;99.90;;;;;;5088864;28;20348;-53
2022/06/12 01:36:43;;;;;;;6.28;5.68;;;12.10;99.90;;;;;;5091451;28;20471;-55
2022/06/12 01:39:37;;;;;;;14.48;5.40;;;12.10;99.90;;;;;;5091769;28;20119;-52
2022/06/12 01:42:08;;;;;;;6.05;5.47;;;12.10;99.90;;;;;;5082782;28;20050;-54
2022/06/12 01:44:52;;;;;;;13.32;5.10;;;12.00;99.90;;;;;;5074349;28;20048;-52
2022/06/12 01:47:21;;;;;;;6.45;5.13;;;12.00;99.90;;;;;;5073840;28;20032;-51
2022/06/12 01:50:08;;;;;;;9.45;4.97;;;12.10;99.90;;;;;;5072899;28;20020;-55
2022/06/12 01:53:06;;;;;;;18.13;4.93;;;12.00;99.90;;;;;;5081141;28;20431;-54
2022/06/12 01:55:46;;;;;;;6.90;4.82;;;11.90;99.90;;;;;;5079686;28;20032;-54
2022/06/12 01:58:26;;;;;;;6.25;5.18;;;11.90;99.90;;;;;;5092238;28;20016;-52
2022/06/12 02:01:17;;;;;;;12.25;4.50;;;11.90;99.90;;;;;;5090321;28;20028;-51
2022/06/12 02:03:52;;;;;;;16.83;4.80;;;11.90;99.90;;;;;;5072862;28;20039;-54
2022/06/12 02:06:45;;;;;;;12.30;5.28;;;11.90;99.90;;;;;;5080668;28;20405;-53
2022/06/12 02:09:17;;;;;;;13.52;5.03;;;11.90;99.90;;;;;;5082740;28;20029;-51
2022/06/12 02:15:00;;;;;;;9.07;5.25;;;11.80;99.90;;;;;;5093002;28;20498;-53
2022/06/12 02:18:15;;;;;;;6.03;4.80;;;11.70;99.90;;;;;;5092524;28;20028;-52
2022/06/12 02:20:52;;;;;;;6.00;4.78;;;11.70;99.90;;;;;;5093077;28;20032;-52
2022/06/12 02:23:30;;;;;;;7.72;5.07;;;11.70;99.90;;;;;;5077961;28;20495;-51
2022/06/12 02:25:59;;;;;;;10.20;4.88;;;11.70;99.90;;;;;;5072254;28;20043;-54
2022/06/12 02:28:34;;;;;;;6.10;4.15;;;11.70;99.90;;;;;;5072358;28;20019;-53
2022/06/12 02:31:04;;;;;;;6.88;5.00;;;11.70;99.90;;;;;;5071721;28;20355;-52
2022/06/12 02:33:38;;;;;;;5.43;4.93;;;11.60;99.90;;;;;;5091090;28;20493;-51
2022/06/12 02:36:08;;;;;;;6.30;5.80;;;11.60;99.90;;;;;;5091447;28;20020;-54
2022/06/12 02:38:47;;;;;;;5.18;4.65;;;11.60;99.90;;;;;;5080766;28;21626;-54
2022/06/12 02:41:37;;;;;;;5.28;4.10;;;11.60;99.90;;;;;;5069976;28;20055;-51
2022/06/12 02:44:11;;;;;;;6.38;4.70;;;11.60;99.90;;;;;;5072510;28;20112;-52
2022/06/12 02:46:38;;;;;;;5.07;4.60;;;11.50;99.90;;;;;;5071699;28;20043;-54
2022/06/12 02:49:06;;;;;;;7.10;4.72;;;11.50;99.90;;;;;;5087872;28;20024;-54
2022/06/12 02:51:40;;;;;;;15.45;4.90;;;11.50;99.90;;;;;;5090255;28;20439;-55
2022/06/12 02:54:15;;;;;;;6.53;4.53;;;11.50;99.90;;;;;;5071411;28;20020;-52
2022/06/12 02:57:02;;;;;;;11.65;4.97;;;11.60;99.90;;;;;;5091775;28;20418;-51
2022/06/12 03:00:07;;;;;;;14.60;4.95;;;11.70;99.90;;;;;;5081083;28;20028;-53
2022/06/12 03:02:46;;;;;;;7.57;4.45;;;11.70;99.90;;;;;;5070900;28;20033;-52
2022/06/12 03:05:22;;;;;;;11.32;5.22;;;11.70;99.90;;;;;;5070153;28;20051;-52
2022/06/12 03:08:16;;;;;;;9.20;4.68;;;11.70;99.90;;;;;;5070420;28;20032;-52
2022/06/12 03:11:05;;;;;;;6.00;5.40;;;11.70;99.90;;;;;;5087954;28;20047;-51
2022/06/12 03:13:31;;;;;;;6.43;5.40;;;11.70;99.90;;;;;;5091587;28;20035;-53
2022/06/12 03:16:18;;;;;;;9.40;4.88;;;11.70;99.90;;;;;;5091182;28;20038;-53
2022/06/12 03:18:54;;;;;;;5.65;4.90;;;11.70;99.90;;;;;;5087467;28;20012;-51
2022/06/12 03:21:20;;;;;;;6.18;4.68;;;11.80;99.90;;;;;;5071582;28;20029;-54
2022/06/12 03:24:23;;;;;;;13.93;5.28;;;11.80;99.90;;;;;;5072259;28;20688;-54
2022/06/12 03:27:13;;;;;;;8.82;5.28;;;11.80;99.90;;;;;;5070321;28;20036;-54
2022/06/12 03:30:01;;;;;;;4.82;4.32;;;11.90;99.90;;;;;;5082247;28;20161;-51
2022/06/12 03:32:36;;;;;;;9.63;5.53;;;11.90;99.90;;;;;;5091113;28;20039;-52
2022/06/12 03:35:44;;;;;;;5.32;4.82;;;12.00;99.90;;;;;;5088046;28;20485;-51
2022/06/12 03:38:22;;;;;;;5.50;4.97;;;11.90;99.90;;;;;;5082531;28;20036;-53
2022/06/12 03:41:09;;;;;;;19.48;5.57;;;12.00;99.90;;;;;;5076872;28;20055;-51
2022/06/12 03:43:38;;;;;;;8.68;4.78;;;12.00;99.90;;;;;;5089905;28;20360;-51
2022/06/12 03:46:28;;;;;;;9.70;4.43;;;12.00;99.90;;;;;;5089645;28;20020;-54
2022/06/12 03:49:07;;;;;;;6.05;4.40;;;12.10;99.90;;;;;;5089388;28;20432;-52
2022/06/12 03:52:12;;;;;;;6.78;4.43;;;12.20;99.90;;;;;;5071974;28;20039;-51
2022/06/12 03:54:52;;;;;;;7.40;4.63;;;12.30;99.90;;;;;;5074703;28;20027;-51
2022/06/12 03:57:52;;;;;;;5.82;4.28;;;12.40;99.90;;;;;;5079961;28;20024;-54
2022/06/12 04:00:39;;;;;;;8.15;4.75;;;12.40;99.90;;;;;;5090405;28;20060;-51
2022/06/12 04:03:23;;;;;;;10.07;5.40;;;12.50;99.90;;;;;;5069470;28;20033;-53
2022/06/12 04:06:02;;;;;;;6.55;4.90;;;12.60;99.90;;;;;;5070601;28;20025;-54
2022/06/12 04:08:33;;;;;;;6.18;4.90;;;12.70;99.90;;;;;;5070007;28;20025;-51
2022/06/12 04:11:00;;;;;;;5.53;4.97;;;12.80;99.90;;;;;;5068702;28;20020;-54
2022/06/12 04:13:26;;;;;;;10.43;5.32;;;13.00;99.90;;;;;;5068724;28;20055;-54
2022/06/12 04:15:56;;;;;;;10.43;4.43;;;13.10;99.90;;;;;;5070895;28;20158;-51
2022/06/12 04:18:24;;;;;;;6.65;5.25;;;13.20;99.90;;;;;;5070147;28;20501;-51
2022/06/12 04:21:11;;;;;;;11.90;4.78;;;13.40;99.90;;;;;;5069419;28;20074;-53
2022/06/12 04:23:52;;;;;;;5.15;4.75;;;13.50;99.90;;;;;;5071528;28;20020;-55
2022/06/12 04:26:23;;;;;;;12.95;4.97;;;13.60;99.90;;;;;;5073927;28;20040;-54
2022/06/12 04:28:57;;;;;;;9.07;5.13;;;13.60;99.90;;;;;;5077341;28;20031;-54
2022/06/12 04:31:23;;;;;;;5.63;5.13;;;13.80;99.90;;;;;;5094033;28;20039;-54
2022/06/12 04:33:51;;;;;;;6.40;5.13;;;13.80;99.90;;;;;;5094360;28;20024;-54
2022/06/12 04:36:17;;;;;;;4.97;4.47;;;13.70;99.90;;;;;;5094615;28;20510;-50
2022/06/12 04:38:43;;;;;;;6.53;5.55;;;13.80;99.90;;;;;;5092123;28;20028;-53
2022/06/12 04:41:09;;;;;;;5.18;4.68;;;13.90;99.90;;;;;;5106731;28;20041;-50
2022/06/12 04:43:35;;;;;;;6.85;5.30;;;14.10;99.90;;;;;;5075510;28;20109;-53
2022/06/12 04:46:03;;;;;;;7.72;5.35;;;14.20;99.90;;;;;;5074012;28;20059;-50
2022/06/12 04:48:35;;;;;;;6.70;5.07;;;14.20;99.90;;;;;;5076769;28;20150;-53
2022/06/12 04:51:01;;;;;;;5.57;4.95;;;14.20;99.90;;;;;;5073727;28;20029;-53
2022/06/12 04:53:27;;;;;;;6.88;4.82;;;14.30;99.90;;;;;;5075296;28;20067;-52
2022/06/12 04:55:53;;;;;;;6.80;4.75;;;14.50;99.90;;;;;;5091516;28;20032;-52
2022/06/12 04:58:19;;;;;;;5.30;4.80;;;14.60;99.90;;;;;;5093580;28;20036;-55
2022/06/12 05:00:45;;;;;;;10.73;5.55;;;14.70;99.90;;;;;;5075058;28;20027;-51
2022/06/12 05:03:12;;;;;;;6.30;4.95;;;14.80;99.90;;;;;;5073391;28;20032;-52
2022/06/12 05:05:39;;;;;;;6.32;5.35;;;15.00;99.90;;;;;;5074410;28;20349;-51
2022/06/12 05:08:04;;;;;;;9.48;4.53;;;15.20;99.90;;;;;;5073889;28;20100;-53
2022/06/12 05:10:30;;;;;;;7.00;5.03;;;15.40;99.90;;;;;;5090332;28;20471;-51
2022/06/12 05:12:56;;;;;;;5.93;5.43;;;15.60;99.90;;;;;;5081489;28;20105;-52
2022/06/12 05:15:22;;;;;;;8.10;5.60;;;15.80;99.90;;;;;;5071765;28;20024;-51
2022/06/12 05:17:49;;;;;;;6.38;4.40;;;16.10;99.90;;;;;;5073437;28;20634;-51
2022/06/12 05:20:24;;;;;;;11.18;5.63;;;16.40;99.90;;;;;;5087844;28;20048;-52
2022/06/12 05:22:50;;;;;;;8.60;4.22;;;16.60;99.90;;;;;;5091659;28;20449;-54
2022/06/12 05:25:17;;;;;;;8.02;4.55;;;16.80;99.90;;;;;;5073522;28;20522;-53
2022/06/12 05:27:45;;;;;;;9.40;4.00;;;16.90;99.90;;;;;;5074283;28;20451;-54
2022/06/12 05:30:20;;;;;;;5.25;4.32;;;17.00;99.90;;;;;;5092973;28;20028;-51
2022/06/12 05:32:48;;;;;;;8.93;4.35;;;17.10;99.90;;;;;;5092243;28;20031;-54
2022/06/12 05:35:15;;;;;;;5.28;4.28;;;17.20;99.90;;;;;;5090903;28;20028;-52
2022/06/12 05:37:41;;;;;;;14.00;4.65;;;17.20;99.90;;;;;;5092295;28;20036;-52
2022/06/12 05:40:11;;;;;;;4.88;4.47;;;17.20;99.90;;;;;;5091379;28;20048;-54
2022/06/12 05:42:38;;;;;;;5.57;4.93;;;17.20;99.90;;;;;;5091077;28;20032;-51
2022/06/12 05:45:15;;;;;;;6.05;4.82;;;17.20;99.90;;;;;;5090774;28;20073;-52
2022/06/12 05:47:56;;;;;;;6.15;4.32;;;17.20;99.90;;;;;;5092491;28;20024;-52
2022/06/12 05:50:25;;;;;;;5.25;4.75;;;17.20;99.90;;;;;;5074669;28;20020;-55
2022/06/12 05:52:51;;;;;;;7.07;5.32;;;17.20;99.90;;;;;;5092960;28;20099;-51
2022/06/12 05:55:16;;;;;;;5.43;4.65;;;17.30;99.90;;;;;;5079489;28;20551;-53
2022/06/12 05:57:43;;;;;;;6.55;5.50;;;17.30;99.90;;;;;;5073700;28;20025;-54
2022/06/12 06:00:17;;;;;;;5.97;4.60;;;17.30;99.90;;;;;;5088964;28;20069;-54
2022/06/12 06:02:44;;;;;;;5.28;4.72;;;17.30;99.90;;;;;;5085365;28;20024;-55
2022/06/12 06:05:10;;;;;;;7.13;4.32;;;17.30;99.90;;;;;;5091872;28;20627;-55
2022/06/12 06:07:35;;;;;;;6.43;4.65;;;17.40;99.90;;;;;;5092706;28;20042;-55
2022/06/12 06:10:04;;;;;;;8.05;4.85;;;17.50;99.90;;;;;;5091287;28;20024;-54
2022/06/12 06:12:30;;;;;;;9.90;5.22;;;17.60;99.90;;;;;;5092465;28;20536;-53
2022/06/12 06:14:55;;;;;;;6.82;4.60;;;17.70;99.90;;;;;;5092545;28;20028;-55
2022/06/12 06:17:21;;;;;;;9.43;4.95;;;17.80;99.90;;;;;;5087668;28;20028;-55
2022/06/12 06:19:47;;;;;;;5.65;4.43;;;17.80;99.90;;;;;;5092101;28;20665;-55
2022/06/12 06:22:16;;;;;;;10.60;4.93;;;18.00;99.90;;;;;;5089967;28;20024;-53
2022/06/12 06:24:42;;;;;;;5.40;4.22;;;18.20;99.90;;;;;;5092306;28;20021;-53
2022/06/12 06:27:12;;;;;;;11.68;4.05;;;18.30;99.90;;;;;;5092323;28;20360;-54
2022/06/12 06:29:38;;;;;;;5.32;4.03;;;18.40;99.90;;;;;;5092195;28;20039;-55
2022/06/12 06:32:05;;;;;;;6.90;4.03;;;18.50;99.90;;;;;;5090612;28;20062;-56
2022/06/12 06:34:31;;;;;;;7.10;3.70;;;18.60;99.90;;;;;;5091792;28;20015;-53
2022/06/12 06:36:57;;;;;;;4.32;3.80;;;18.80;99.90;;;;;;5091771;28;20008;-55
2022/06/12 06:39:23;;;;;;;9.25;3.72;;;18.90;99.90;;;;;;5091819;28;20394;-55
2022/06/12 06:41:49;;;;;;;3.78;3.08;;;19.00;99.90;;;;;;5092033;28;20024;-56
2022/06/12 06:46:59;;;;;;;6.10;3.30;;;19.30;99.90;;;;;;5090965;28;20466;-56
2022/06/12 06:49:25;;;;;;;4.60;3.25;;;19.40;99.90;;;;;;5091876;28;20024;-55
2022/06/12 06:51:51;;;;;;;5.05;3.22;;;19.60;99.90;;;;;;5091833;28;20020;-55
2022/06/12 06:54:18;;;;;;;5.30;3.53;;;19.70;99.90;;;;;;5091511;28;20032;-56
2022/06/12 06:56:44;;;;;;;6.30;3.10;;;19.80;99.90;;;;;;5091581;28;20028;-54
2022/06/12 06:59:19;;;;;;;4.35;2.85;;;20.00;99.90;;;;;;5091572;28;20024;-54
2022/06/12 07:01:45;;;;;;;5.95;3.35;;;20.20;99.90;;;;;;5091718;28;20028;-51
2022/06/12 07:04:11;;;;;;;11.55;3.60;;;20.30;99.90;;;;;;5091278;28;20028;-56
2022/06/12 07:06:37;;;;;;;5.00;3.28;;;20.50;99.90;;;;;;5091607;28;20016;-56
2022/06/12 07:09:04;;;;;;;10.27;3.47;;;20.60;99.90;;;;;;5091553;28;20089;-55
2022/06/12 07:11:30;;;;;;;6.40;3.08;;;20.80;99.90;;;;;;5091533;28;20048;-55
2022/06/12 07:13:56;;;;;;;4.65;2.63;;;20.90;99.90;;;;;;5091608;28;20024;-55
2022/06/12 07:16:24;;;;;;;7.15;2.70;;;21.00;99.90;;;;;;5090156;28;20531;-54
2022/06/12 07:18:50;;;;;;;6.72;2.45;;;21.10;99.90;;;;;;5091507;28;20382;-55
2022/06/12 07:21:15;;;;;;;3.92;2.67;;;21.10;99.90;;;;;;5090993;28;20043;-55
2022/06/12 07:23:42;;;;;;;4.60;2.58;;;21.20;99.90;;;;;;5088855;28;20019;-56
2022/06/12 07:26:18;;;;;;;4.60;2.55;;;21.30;99.90;;;;;;5091490;28;20028;-55
2022/06/12 07:28:44;;;;;;;4.05;2.67;;;21.40;99.90;;;;;;5088165;28;20040;-53
2022/06/12 07:31:09;;;;;;;3.45;2.90;;;21.50;99.90;;;;;;5091170;28;20051;-55
2022/06/12 07:33:37;;;;;;;3.55;2.17;;;21.60;99.90;;;;;;5091583;28;20374;-55
2022/06/12 07:36:08;;;;;;;5.30;1.92;;;21.80;98.70;;;;;;5091438;28;20027;-54
2022/06/12 07:38:36;;;;;;;2.83;1.95;;;21.90;97.50;;;;;;5091881;28;20028;-51
2022/06/12 07:41:04;;;;;;;3.17;2.20;;;22.00;98.50;;;;;;5091207;28;20605;-54
2022/06/12 07:43:33;;;;;;;6.85;3.20;;;22.10;98.60;;;;;;5073679;28;20036;-55
2022/06/12 07:46:01;;;;;;;2.53;2.28;;;22.20;96.80;;;;;;5069739;28;20059;-55
2022/06/12 07:48:26;;;;;;;2.38;2.10;;;22.30;97.40;;;;;;5078248;28;20065;-56
2022/06/12 07:50:54;;;;;;;2.72;2.17;;;22.40;97.70;;;;;;5087182;28;20504;-54
2022/06/12 07:53:21;;;;;;;6.38;2.30;;;22.50;97.60;;;;;;5088848;28;20016;-55
2022/06/12 07:55:50;;;;;;;3.78;2.03;;;22.60;95.80;;;;;;5090119;28;20047;-54
2022/06/12 07:58:17;;;;;;;3.40;2.60;;;22.80;97.00;;;;;;5093147;28;20032;-51
2022/06/12 08:00:44;;;;;;;5.22;2.10;;;22.80;96.10;;;;;;5098604;28;20030;-53
2022/06/12 08:03:10;;;;;;;3.38;2.53;;;22.90;97.40;;;;;;5097663;28;20016;-56
2022/06/12 08:05:37;;;;;;;3.83;2.65;;;22.90;96.90;;;;;;5097322;28;20070;-56
2022/06/12 08:08:03;;;;;;;2.45;2.15;;;23.00;97.00;;;;;;5096620;28;20031;-56
2022/06/12 08:10:29;;;;;;;7.15;2.55;;;23.10;94.50;;;;;;5097999;28;20035;-55
2022/06/12 08:12:58;;;;;;;4.88;2.63;;;23.20;94.80;;;;;;5095520;28;20023;-53
2022/06/12 08:15:27;;;;;;;2.47;1.95;;;23.20;93.40;;;;;;5092210;28;20508;-52
2022/06/12 08:17:56;;;;;;;3.13;1.73;;;23.30;93.80;;;;;;5095009;28;20047;-55
2022/06/12 08:20:26;;;;;;;2.30;2.10;;;23.30;91.70;;;;;;5094663;28;20589;-54
2022/06/12 08:23:03;;;;;;;2.78;1.90;;;23.50;92.90;;;;;;5095532;28;20546;-55
2022/06/12 08:25:31;;;;;;;5.82;2.30;;;23.70;94.50;;;;;;5095528;28;20028;-54
2022/06/12 08:27:57;;;;;;;7.65;2.08;;;23.80;91.90;;;;;;5096624;28;20017;-53
2022/06/12 08:30:28;;;;;;;2.35;1.67;;;23.80;88.00;;;;;;5096568;28;20050;-54
2022/06/12 08:32:55;;;;;;;4.72;1.90;;;24.00;92.50;;;;;;5091991;28;20023;-56
2022/06/12 08:35:25;;;;;;;3.08;1.55;;;24.30;89.00;;;;;;5095648;28;20081;-55
2022/06/12 08:37:51;;;;;;;3.20;1.98;;;24.40;88.60;;;;;;5096493;28;20363;-53
2022/06/12 08:40:25;;;;;;;4.43;2.25;;;24.40;84.80;;;;;;5096289;28;20054;-55
2022/06/12 08:42:54;;;;;;;3.05;2.38;;;24.70;86.50;;;;;;5092764;28;20409;-55
2022/06/12 08:45:24;;;;;;;2.55;1.95;;;25.00;87.60;;;;;;5098157;28;20110;-55
2022/06/12 08:48:02;;;;;;;4.30;1.70;;;25.10;82.50;;;;;;5093250;28;20089;-53
2022/06/12 08:54:09;;;;;;;2.90;1.88;;;24.90;80.60;;;;;;5094637;28;20034;-56
2022/06/12 08:56:56;;;;;;;2.47;1.50;;;24.70;82.10;;;;;;5094467;28;20028;-55
2022/06/12 08:59:34;;;;;;;6.97;2.20;;;24.70;76.70;;;;;;5094203;28;20012;-55
2022/06/12 09:02:06;;;;;;;3.25;1.73;;;24.50;75.30;;;;;;5092344;28;20023;-58
2022/06/12 09:04:33;;;;;;;8.45;4.32;;;24.60;74.60;;;;;;5092831;28;20023;-56
2022/06/12 09:07:18;;;;;;;6.30;2.58;;;25.00;77.20;;;;;;5092515;28;20028;-58
2022/06/12 09:10:18;;;;;;;5.70;2.85;;;25.00;77.10;;;;;;5073381;28;20043;-57
2022/06/12 09:12:53;;;;;;;3.53;2.72;;;24.90;75.30;;;;;;5068551;28;20059;-57
2022/06/12 09:15:42;;;;;;;3.53;2.35;;;24.70;77.70;;;;;;5073292;28;20028;-57
2022/06/12 09:18:30;;;;;;;2.60;2.40;;;24.70;78.00;;;;;;5084311;28;20016;-56
2022/06/12 09:21:05;;;;;;;2.47;1.60;;;24.60;84.20;;;;;;5077993;28;20676;-55
2022/06/12 09:24:11;;;;;;;4.05;1.55;;;25.00;81.00;;;;;;5076030;28;20035;-57
2022/06/12 09:27:01;;;;;;;5.18;2.00;;;25.30;71.00;;;;;;5073950;28;20045;-57
2022/06/12 09:29:39;;;;;;;1.35;1.05;;;26.00;72.90;;;;;;5074411;28;20496;-54
2022/06/12 09:32:39;;;;;;;6.20;1.73;;;26.60;69.00;;;;;;5073434;28;20017;-56
2022/06/12 09:35:35;;;;;;;7.70;3.08;;;26.70;69.50;;;;;;5073204;28;20035;-56
2022/06/12 09:38:30;;;;;;;1.70;1.40;;;26.70;70.50;;;;;;5073951;28;20033;-55
2022/06/12 09:41:26;;;;;;;2.95;2.08;;;26.30;69.40;;;;;;5071853;28;20044;-56
2022/06/12 09:43:59;;;;;;;2.65;1.90;;;25.90;72.10;;;;;;5071043;28;20028;-57
2022/06/12 09:46:36;;;;;;;3.97;2.13;;;25.40;64.00;;;;;;5072200;28;20387;-55
2022/06/12 09:49:23;;;;;;;4.45;1.20;;;25.30;64.10;;;;;;5090420;28;20088;-55
2022/06/12 09:51:59;;;;;;;4.50;1.63;;;26.00;68.90;;;;;;5093235;28;20028;-56
2022/06/12 09:54:56;;;;;;;8.23;3.78;;;26.60;63.40;;;;;;5089420;28;20032;-56
2022/06/12 09:57:45;;;;;;;4.40;1.75;;;26.90;63.10;;;;;;5086887;28;20115;-57
2022/06/12 10:00:31;;;;;;;3.20;1.38;;;27.50;57.60;;;;;;5069743;28;20058;-57
2022/06/12 10:03:23;;;;;;;5.63;1.67;;;28.00;60.90;;;;;;5070652;28;20035;-55
2022/06/12 10:05:53;;;;;;;6.53;2.10;;;27.80;57.60;;;;;;5069624;28;20025;-57
2022/06/12 10:08:38;;;;;;;3.13;1.50;;;27.30;61.00;;;;;;5106690;28;20634;-57
2022/06/12 10:11:22;;;;;;;4.30;1.30;;;27.40;57.90;;;;;;5092304;28;20024;-56
2022/06/12 10:14:02;;;;;;;4.03;1.50;;;28.10;60.10;;;;;;5093134;28;20084;-56
2022/06/12 10:16:45;;;;;;;2.65;1.40;;;28.20;57.10;;;;;;5092956;28;20062;-56
2022/06/12 10:19:19;;;;;;;3.72;1.75;;;28.30;56.30;;;;;;5091962;28;20039;-55
2022/06/12 10:21:53;;;;;;;4.97;1.75;;;27.10;59.00;;;;;;5073491;28;20047;-54
2022/06/12 10:24:20;;;;;;;6.35;1.58;;;26.60;62.00;;;;;;5072456;28;20021;-56
2022/06/12 10:26:56;;;;;;;1.70;1.60;;;26.70;57.40;;;;;;5072638;28;20032;-56
2022/06/12 10:29:24;;;;;;;3.33;1.40;;;26.50;56.60;;;;;;5091686;28;20115;-56
2022/06/12 10:32:02;;;;;;;1.83;1.40;;;26.60;60.50;;;;;;5092644;28;20103;-57
2022/06/12 10:34:33;;;;;;;2.30;1.58;;;27.00;57.70;;;;;;5092582;28;20059;-57
2022/06/12 10:37:22;;;;;;;2.03;1.60;;;27.60;57.10;;;;;;5092798;28;20054;-55
2022/06/12 10:40:14;;;;;;;2.72;1.17;;;27.90;54.10;;;;;;5071850;28;20040;-56
2022/06/12 10:42:55;;;;;;;1.80;1.38;;;27.80;55.20;;;;;;5071847;28;20016;-57
2022/06/12 10:45:29;;;;;;;4.85;1.58;;;27.40;55.30;;;;;;5071918;28;20043;-56
2022/06/12 10:48:00;;;;;;;5.20;1.42;;;27.20;62.20;;;;;;5079131;28;20465;-57
2022/06/12 10:50:48;;;;;;;6.28;1.50;;;27.90;57.20;;;;;;5092248;28;20409;-57
2022/06/12 10:53:19;;;;;;;3.25;1.38;;;28.60;64.70;;;;;;5092247;28;20081;-57
2022/06/12 10:55:58;;;;;;;3.35;1.85;;;28.20;55.60;;;;;;5092312;28;20024;-57
2022/06/12 10:58:36;;;;;;;2.90;1.77;;;27.90;54.80;;;;;;5080984;28;20173;-57
2022/06/12 11:01:43;;;;;;;6.50;1.55;;;28.60;55.90;;;;;;5071675;28;20078;-55
2022/06/12 11:04:17;;;;;;;1.80;1.27;;;29.00;58.70;;;;;;5070733;28;20036;-57
2022/06/12 11:07:16;;;;;;;2.85;1.15;;;29.00;54.40;;;;;;5070670;28;20028;-55
2022/06/12 11:09:50;;;;;;;2.22;1.55;;;28.90;57.90;;;;;;5070593;28;20384;-56
2022/06/12 11:12:33;;;;;;;1.80;1.33;;;28.20;54.50;;;;;;5071225;28;20058;-57
2022/06/12 11:15:07;;;;;;;2.78;1.52;;;27.80;54.10;;;;;;5071214;28;20040;-56
2022/06/12 11:17:59;;;;;;;4.38;1.42;;;27.40;58.40;;;;;;5074590;28;20066;-57
2022/06/12 11:20:42;;;;;;;4.57;1.38;;;28.10;58.20;;;;;;5091711;28;20099;-56
2022/06/12 11:23:17;;;;;;;4.00;1.83;;;28.50;54.90;;;;;;5091641;28;20031;-58
2022/06/12 11:26:13;;;;;;;8.80;1.30;;;28.40;57.70;;;;;;5091756;28;20032;-56
2022/06/12 11:29:00;;;;;;;6.57;1.80;;;28.90;55.10;;;;;;5078897;28;20036;-57
2022/06/12 11:31:53;;;;;;;3.70;1.60;;;29.00;52.60;;;;;;5071344;28;20071;-56
2022/06/12 11:34:51;;;;;;;1.70;1.33;;;28.30;51.10;;;;;;5071677;28;20573;-57
2022/06/12 11:37:47;;;;;;;5.00;1.70;;;28.80;52.70;;;;;;5072841;28;20263;-57
2022/06/12 11:40:36;;;;;;;4.47;1.52;;;29.40;55.90;;;;;;5091632;28;20051;-57
2022/06/12 11:43:14;;;;;;;2.28;1.48;;;29.10;50.60;;;;;;5091504;28;20024;-58
2022/06/12 11:45:51;;;;;;;5.25;1.50;;;29.20;54.40;;;;;;5090334;28;20042;-57
2022/06/12 11:48:54;;;;;;;1.45;1.20;;;29.60;53.10;;;;;;5082289;28;20706;-57
2022/06/12 11:51:29;;;;;;;6.87;1.50;;;29.60;53.70;;;;;;5071535;28;20052;-57
2022/06/12 11:53:57;;;;;;;2.08;1.40;;;29.10;56.20;;;;;;5071433;28;20028;-56
2022/06/12 11:56:26;;;;;;;3.35;1.77;;;29.30;53.90;;;;;;5069972;28;20075;-57
2022/06/12 11:59:13;;;;;;;1.88;1.25;;;29.50;54.20;;;;;;5083997;28;20036;-57
2022/06/12 12:02:07;;;;;;;1.60;1.20;;;29.70;51.10;;;;;;5091434;28;20111;-58
2022/06/12 12:05:00;;;;;;;4.53;1.33;;;29.50;56.00;;;;;;5086251;28;20407;-57
2022/06/12 12:07:27;;;;;;;1.92;1.40;;;30.10;50.00;;;;;;5087207;28;20027;-56
2022/06/12 12:10:17;;;;;;;1.60;1.13;;;29.50;52.20;;;;;;5070948;28;20021;-57
2022/06/12 12:12:49;;;;;;;7.07;2.28;;;29.70;52.30;;;;;;5070660;28;20024;-57
2022/06/12 12:15:29;;;;;;;3.25;1.23;;;30.50;56.10;;;;;;5070962;28;20027;-57
2022/06/12 12:17:57;;;;;;;3.13;1.35;;;30.90;48.80;;;;;;5077644;28;20112;-58
2022/06/12 12:20:27;;;;;;;7.68;1.30;;;30.90;49.40;;;;;;5090894;28;20115;-58
2022/06/12 12:22:59;;;;;;;2.83;1.63;;;31.90;51.60;;;;;;5090661;28;20028;-58
2022/06/12 12:25:48;;;;;;;4.80;1.17;;;32.60;47.40;;;;;;5090575;28;20522;-58
2022/06/12 12:28:16;;;;;;;3.25;1.33;;;32.90;46.70;;;;;;5081900;28;20036;-58
2022/06/12 12:30:43;;;;;;;5.03;1.63;;;33.10;45.20;;;;;;5070799;28;20052;-58
2022/06/12 12:33:16;;;;;;;3.22;1.60;;;33.60;47.10;;;;;;5070854;28;20028;-58
2022/06/12 12:41:21;;;;;;;2.47;1.33;;;33.80;43.50;;;;;;5090879;28;20436;-59
2022/06/12 12:43:58;;;;;;;2.00;1.17;;;35.60;42.70;;;;;;5091080;28;20447;-59
2022/06/12 12:46:42;;;;;;;2.70;1.10;;;35.30;44.90;;;;;;5094480;28;20532;-59
2022/06/12 12:49:07;;;;;;;4.80;1.10;;;34.80;40.90;;;;;;5076549;28;20032;-59
2022/06/12 12:51:35;;;;;;;3.15;1.30;;;35.30;41.50;;;;;;5074305;28;20078;-57
2022/06/12 12:54:16;;;;;;;2.45;1.00;;;35.10;41.90;;;;;;5074236;28;20078;-56
2022/06/12 12:56:55;;;;;;;5.65;0.90;;;37.00;40.60;;;;;;5074399;28;20020;-56
2022/06/12 12:59:22;;;;;;;4.78;1.40;;;36.50;40.00;;;;;;5092202;28;20073;-57
2022/06/12 13:01:50;;;;;;;5.57;1.50;;;35.90;40.00;;;;;;5094516;28;20036;-57
2022/06/12 13:04:30;;;;;;;2.05;1.10;;;35.70;38.00;;;;;;5094176;28;20027;-56
2022/06/12 13:07:24;;;;;;;1.67;1.00;;;37.50;44.00;;;;;;5094145;28;20506;-59
2022/06/12 13:10:23;;;;;;;1.77;0.93;;;37.50;36.70;;;;;;5073967;28;20108;-59
2022/06/12 13:13:10;;;;;;;7.05;0.95;;;37.80;37.50;;;;;;5089584;28;20463;-59
2022/06/12 13:15:39;;;;;;;4.65;1.15;;;35.70;37.10;;;;;;5074014;28;20043;-56
2022/06/12 13:18:34;;;;;;;3.47;1.08;;;33.90;37.90;;;;;;5073730;28;20036;-56
2022/06/12 13:21:21;;;;;;;6.18;1.40;;;33.80;42.00;;;;;;5073634;28;20115;-56
2022/06/12 13:24:12;;;;;;;0.95;0.70;;;34.80;39.40;;;;;;5072484;28;20099;-56
2022/06/12 13:26:41;;;;;;;1.70;1.00;;;34.70;38.20;;;;;;5072741;28;20024;-57
2022/06/12 13:29:15;;;;;;;3.97;1.33;;;35.70;41.00;;;;;;5073658;28;20029;-56
2022/06/12 13:31:57;;;;;;;6.85;1.17;;;35.40;38.50;;;;;;5106227;28;20029;-57
2022/06/12 13:34:23;;;;;;;8.30;1.30;;;36.00;37.70;;;;;;5073598;28;20035;-57
2022/06/12 13:36:50;;;;;;;3.80;0.85;;;35.70;37.60;;;;;;5077571;28;20361;-56
2022/06/12 13:39:29;;;;;;;4.10;1.35;;;35.40;36.40;;;;;;5093377;28;20059;-57
2022/06/12 13:41:59;;;;;;;2.05;0.85;;;35.50;37.50;;;;;;5093501;28;20082;-57
2022/06/12 13:44:34;;;;;;;3.08;1.08;;;34.80;37.60;;;;;;5093462;28;20024;-56
2022/06/12 13:47:34;;;;;;;20.90;1.35;;;34.80;38.80;;;;;;5088049;28;20024;-57